createdAt,value
2022-08-22T00:00:15.059Z,56.73
2022-08-22T00:03:02.382Z,50.15
2022-08-22T00:03:06.993Z,58.24
2022-08-22T00:03:17.512Z,57.33
2022-08-22T00:05:48.509Z,56.52
2022-08-22T00:08:18.591Z,56.94
2022-08-22T00:11:07.245Z,57.33
2022-08-22T00:13:37.572Z,56.35
2022-08-22T00:16:10.258Z,57.45
2022-08-22T00:18:39.442Z,56.79
2022-08-22T00:21:22.029Z,57.15
2022-08-22T00:23:58.457Z,56.59
2022-08-22T00:26:34.580Z,56.29
2022-08-22T00:29:04.655Z,56.07
2022-08-22T00:31:41.211Z,55.73
2022-08-22T00:34:10.904Z,56.62
2022-08-22T00:37:03.528Z,56.11
2022-08-22T00:39:37.047Z,56.95
2022-08-22T00:42:31.788Z,56.51
2022-08-22T00:45:18.473Z,57.06
2022-08-22T00:47:50.160Z,57.25
2022-08-22T00:50:33.623Z,57.27
2022-08-22T00:53:00.979Z,59.54
2022-08-22T00:55:51.532Z,59.30
2022-08-22T00:58:33.363Z,59.71
2022-08-22T01:01:03.952Z,59.40
2022-08-22T01:03:31.299Z,59.19
2022-08-22T01:06:10.888Z,58.84
2022-08-22T01:08:59.567Z,57.89
2022-08-22T01:11:26.876Z,57.44
2022-08-22T01:14:15.089Z,57.14
2022-08-22T01:16:46.618Z,57.81
2022-08-22T01:19:14.280Z,57.64
2022-08-22T01:22:01.154Z,57.00
2022-08-22T01:25:07.329Z,59.45
2022-08-22T01:27:50.558Z,59.28
2022-08-22T01:30:22.694Z,59.98
2022-08-22T01:33:24.960Z,59.35
2022-08-22T01:36:10.446Z,58.63
2022-08-22T01:38:40.806Z,58.32
2022-08-22T01:41:17.435Z,58.42
2022-08-22T01:43:59.972Z,57.78
2022-08-22T01:46:28.695Z,58.07
2022-08-22T01:48:58.391Z,57.98
2022-08-22T01:51:32.094Z,58.41
2022-08-22T01:53:59.358Z,59.54
2022-08-22T01:56:29.621Z,58.21
2022-08-22T01:58:57.903Z,60.75
2022-08-22T02:01:43.460Z,59.89
2022-08-22T02:04:14.897Z,58.91
2022-08-22T02:06:42.377Z,59.31
2022-08-22T02:09:12.291Z,58.86
2022-08-22T02:12:21.982Z,59.06
2022-08-22T02:14:55.811Z,59.08
2022-08-22T02:17:28.993Z,58.05
2022-08-22T02:20:13.856Z,59.06
2022-08-22T02:22:59.991Z,58.63
2022-08-22T02:25:28.986Z,58.12
2022-08-22T02:28:13.837Z,60.05
2022-08-22T02:30:47.265Z,60.00
2022-08-22T02:33:34.053Z,59.54
2022-08-22T02:36:04.235Z,59.54
2022-08-22T02:38:34.800Z,60.85
2022-08-22T02:41:10.719Z,61.32
2022-08-22T02:43:38.077Z,61.56
2022-08-22T02:46:13.056Z,61.94
2022-08-22T02:48:45.703Z,61.07
2022-08-22T02:51:15.827Z,61.57
2022-08-22T02:53:57.820Z,61.76
2022-08-22T02:56:37.169Z,61.33
2022-08-22T02:59:23.965Z,61.01
2022-08-22T03:01:56.135Z,61.05
2022-08-22T03:04:23.427Z,60.50
2022-08-22T03:07:08.019Z,61.38
2022-08-22T03:09:44.721Z,62.30
2022-08-22T03:12:27.267Z,62.04
2022-08-22T03:15:09.040Z,62.44
2022-08-22T03:17:39.744Z,61.74
2022-08-22T03:20:09.887Z,61.83
2022-08-22T03:22:45.324Z,61.63
2022-08-22T03:25:15.093Z,62.36
2022-08-22T03:27:50.864Z,61.54
2022-08-22T03:30:20.147Z,61.48
2022-08-22T03:32:53.867Z,61.58
2022-08-22T03:38:33.545Z,61.00
2022-08-22T03:41:03.111Z,61.37
2022-08-22T03:43:33.474Z,61.19
2022-08-22T03:46:03.444Z,60.49
2022-08-22T03:48:38.141Z,61.09
2022-08-22T03:51:08.418Z,61.19
2022-08-22T03:53:48.127Z,60.92
2022-08-22T03:56:28.928Z,60.78
2022-08-22T03:59:10.251Z,60.49
2022-08-22T04:02:01.500Z,60.19
2022-08-22T04:04:47.525Z,60.29
2022-08-22T04:07:33.812Z,61.21
2022-08-22T04:10:21.055Z,61.16
2022-08-22T04:13:10.143Z,60.87
2022-08-22T04:15:45.489Z,61.34
2022-08-22T04:18:12.889Z,61.29
2022-08-22T04:20:59.902Z,61.61
2022-08-22T04:23:45.894Z,60.84
2022-08-22T04:26:16.038Z,60.67
2022-08-22T04:28:51.288Z,62.28
2022-08-22T04:31:23.407Z,64.38
2022-08-22T04:33:52.911Z,63.30
2022-08-22T04:36:24.814Z,62.97
2022-08-22T04:38:53.942Z,62.69
2022-08-22T04:41:25.448Z,63.10
2022-08-22T04:43:54.988Z,61.77
2022-08-22T04:46:33.609Z,62.20
2022-08-22T04:49:10.992Z,61.24
2022-08-22T04:51:40.692Z,61.76
2022-08-22T04:54:13.758Z,61.65
2022-08-22T04:56:46.925Z,61.75
2022-08-22T04:59:18.273Z,61.23
2022-08-22T05:01:56.196Z,62.54
2022-08-22T05:04:28.045Z,61.92
2022-08-22T05:06:57.681Z,61.43
2022-08-22T05:09:28.370Z,60.85
2022-08-22T05:12:01.068Z,60.59
2022-08-22T05:14:30.514Z,60.84
2022-08-22T05:16:58.757Z,60.93
2022-08-22T05:19:37.655Z,61.96
2022-08-22T05:22:15.102Z,62.01
2022-08-22T05:24:44.193Z,61.34
2022-08-22T05:27:18.200Z,60.64
2022-08-22T05:29:48.013Z,61.79
2022-08-22T05:32:18.553Z,61.86
2022-08-22T05:34:47.698Z,61.68
2022-08-22T05:37:26.032Z,60.61
2022-08-22T05:39:54.586Z,62.91
2022-08-22T05:42:28.761Z,62.18
2022-08-22T05:44:56.108Z,61.97
2022-08-22T05:47:32.653Z,61.69
2022-08-22T05:50:06.123Z,61.43
2022-08-22T05:52:39.934Z,61.10
2022-08-22T05:55:23.549Z,61.08
2022-08-22T05:58:05.929Z,60.17
2022-08-22T06:00:33.629Z,59.57
2022-08-22T06:03:24.459Z,59.50
2022-08-22T06:05:53.402Z,58.20
2022-08-22T06:08:23.385Z,59.80
2022-08-22T06:10:54.316Z,59.00
2022-08-22T06:13:24.441Z,58.83
2022-08-22T06:15:55.422Z,58.98
2022-08-22T06:18:24.748Z,57.84
2022-08-22T06:21:01.982Z,58.37
2022-08-22T06:23:30.549Z,56.50
2022-08-22T06:25:58.561Z,57.18
2022-08-22T06:28:27.446Z,59.05
2022-08-22T06:30:56.227Z,59.40
2022-08-22T06:33:27.071Z,57.49
2022-08-22T06:36:28.396Z,56.61
2022-08-22T06:39:07.020Z,56.66
2022-08-22T06:41:38.187Z,57.23
2022-08-22T06:44:14.084Z,58.26
2022-08-22T06:46:41.620Z,57.45
2022-08-22T06:49:09.223Z,55.02
2022-08-22T06:51:37.078Z,55.50
2022-08-22T06:54:18.456Z,54.93
2022-08-22T06:56:46.324Z,52.36
2022-08-22T06:59:14.871Z,54.43
2022-08-22T07:01:47.947Z,52.83
2022-08-22T07:04:15.866Z,50.14
2022-08-22T07:06:44.577Z,52.81
2022-08-22T07:09:26.026Z,52.51
2022-08-22T07:11:53.971Z,49.34
2022-08-22T07:14:39.475Z,52.40
2022-08-22T07:17:08.700Z,49.33
2022-08-22T07:19:37.717Z,49.77
2022-08-22T07:22:12.934Z,49.66
2022-08-22T07:24:42.377Z,49.13
2022-08-22T07:27:18.947Z,48.75
2022-08-22T07:30:27.366Z,47.07
2022-08-22T07:32:55.466Z,46.66
2022-08-22T07:35:34.325Z,47.74
2022-08-22T07:38:08.204Z,49.47
2022-08-22T07:40:56.763Z,46.87
2022-08-22T07:43:31.438Z,46.89
2022-08-22T07:46:08.474Z,47.49
2022-08-22T07:48:59.320Z,46.55
2022-08-22T07:51:32.095Z,47.60
2022-08-22T07:54:00.917Z,46.15
2022-08-22T07:56:33.718Z,45.80
2022-08-22T07:59:09.359Z,44.48
2022-08-22T08:01:44.090Z,45.42
2022-08-22T08:04:13.144Z,43.88
2022-08-22T08:06:40.358Z,45.54
2022-08-22T08:09:09.798Z,45.97
2022-08-22T08:11:40.028Z,47.50
2022-08-22T08:14:07.553Z,46.40
2022-08-22T08:16:42.771Z,45.85
2022-08-22T08:19:10.827Z,46.74
2022-08-22T08:21:39.346Z,46.10
2022-08-22T08:24:07.850Z,47.98
2022-08-22T08:26:59.413Z,46.23
2022-08-22T08:29:27.050Z,44.82
2022-08-22T08:31:54.381Z,45.12
2022-08-22T08:34:23.465Z,45.01
2022-08-22T08:36:57.873Z,45.43
2022-08-22T08:39:57.715Z,45.80
2022-08-22T08:42:59.902Z,44.53
2022-08-22T08:45:42.909Z,44.99
2022-08-22T08:48:21.771Z,44.71
2022-08-22T08:50:59.370Z,45.26
2022-08-22T08:53:45.347Z,46.46
2022-08-22T08:56:19.625Z,44.09
2022-08-22T08:58:50.881Z,45.26
2022-08-22T09:01:29.650Z,44.51
2022-08-22T09:04:15.222Z,46.54
2022-08-22T09:07:01.048Z,45.35
2022-08-22T09:09:31.996Z,47.44
2022-08-22T09:12:15.024Z,48.04
2022-08-22T09:14:48.679Z,46.80
2022-08-22T09:17:18.345Z,46.58
2022-08-22T09:20:17.684Z,45.92
2022-08-22T09:23:05.580Z,45.58
2022-08-22T09:25:46.148Z,46.30
2022-08-22T09:28:19.793Z,44.08
2022-08-22T09:30:54.265Z,44.62
2022-08-22T09:33:25.041Z,46.18
2022-08-22T09:36:13.384Z,44.10
2022-08-22T09:38:48.341Z,46.32
2022-08-22T09:41:19.722Z,46.06
2022-08-22T09:43:57.325Z,43.70
2022-08-22T09:46:32.118Z,45.90
2022-08-22T09:49:07.278Z,44.60
2022-08-22T09:51:38.986Z,43.02
2022-08-22T09:54:11.248Z,45.58
2022-08-22T09:56:41.897Z,45.10
2022-08-22T09:59:12.423Z,42.56
2022-08-22T10:01:48.515Z,43.31
2022-08-22T10:04:20.414Z,43.66
2022-08-22T10:06:51.976Z,42.30
2022-08-22T10:09:31.166Z,41.51
2022-08-22T10:12:12.881Z,39.52
2022-08-22T10:14:59.491Z,41.16
2022-08-22T10:17:40.963Z,40.09
2022-08-22T10:20:25.547Z,40.00
2022-08-22T10:22:55.769Z,42.12
2022-08-22T10:25:34.348Z,41.42
2022-08-22T10:28:17.069Z,42.88
2022-08-22T10:33:44.464Z,42.30
2022-08-22T10:36:23.609Z,38.85
2022-08-22T10:38:54.916Z,40.96
2022-08-22T10:41:22.731Z,40.98
2022-08-22T10:44:00.740Z,40.32
2022-08-22T10:46:36.071Z,40.74
2022-08-22T10:49:08.168Z,43.41
2022-08-22T10:51:36.734Z,37.90
2022-08-22T10:54:19.934Z,38.18
2022-08-22T10:57:03.626Z,38.03
2022-08-22T10:59:48.352Z,38.37
2022-08-22T11:02:38.684Z,41.33
2022-08-22T11:05:14.070Z,39.81
2022-08-22T11:07:58.874Z,37.39
2022-08-22T11:10:29.687Z,36.00
2022-08-22T11:13:00.486Z,37.77
2022-08-22T11:15:47.546Z,36.76
2022-08-22T11:18:18.934Z,38.83
2022-08-22T11:20:55.863Z,36.53
2022-08-22T11:23:27.095Z,36.05
2022-08-22T11:26:13.359Z,35.45
2022-08-22T11:28:55.530Z,34.81
2022-08-22T11:31:47.339Z,30.88
2022-08-22T11:34:41.367Z,31.73
2022-08-22T11:37:15.422Z,28.16
2022-08-22T11:40:06.680Z,27.77
2022-08-22T11:42:59.181Z,28.89
2022-08-22T11:45:35.088Z,27.04
2022-08-22T11:48:08.591Z,28.21
2022-08-22T11:50:42.857Z,27.27
2022-08-22T11:53:32.367Z,27.16
2022-08-22T11:56:08.453Z,28.75
2022-08-22T11:59:14.044Z,30.00
2022-08-22T12:01:46.786Z,28.08
2022-08-22T12:04:26.628Z,28.91
2022-08-22T12:07:15.972Z,29.14
2022-08-22T12:09:51.965Z,32.91
2022-08-22T12:12:27.902Z,26.47
2022-08-22T12:15:08.839Z,27.15
2022-08-22T12:18:01.308Z,31.40
2022-08-22T12:20:37.405Z,30.50
2022-08-22T12:23:08.217Z,31.52
2022-08-22T12:26:10.778Z,31.24
2022-08-22T12:28:59.987Z,32.46
2022-08-22T12:31:31.285Z,30.23
2022-08-22T12:34:14.232Z,28.70
2022-08-22T12:37:02.043Z,27.47
2022-08-22T12:39:50.166Z,27.41
2022-08-22T12:42:36.353Z,24.99
2022-08-22T12:45:16.055Z,26.15
2022-08-22T12:47:43.689Z,25.05
2022-08-22T12:50:15.880Z,26.39
2022-08-22T12:53:23.550Z,28.43
2022-08-22T12:55:58.953Z,28.02
2022-08-22T12:58:46.206Z,27.58
2022-08-22T13:01:43.372Z,26.04
2022-08-22T13:04:32.582Z,26.49
2022-08-22T13:07:05.467Z,25.26
2022-08-22T13:09:37.892Z,25.82
2022-08-22T13:12:05.490Z,23.88
2022-08-22T13:14:37.361Z,25.86
2022-08-22T13:17:23.873Z,25.59
2022-08-22T13:20:08.624Z,23.71
2022-08-22T13:22:38.940Z,23.79
2022-08-22T13:25:26.219Z,23.67
2022-08-22T13:27:55.201Z,25.57
2022-08-22T13:30:26.745Z,26.33
2022-08-22T13:32:55.234Z,25.65
2022-08-22T13:35:27.716Z,24.17
2022-08-22T13:38:12.039Z,24.13
2022-08-22T13:40:42.824Z,25.48
2022-08-22T13:43:13.057Z,28.12
2022-08-22T13:45:42.844Z,25.64
2022-08-22T13:48:12.479Z,26.34
2022-08-22T13:51:14.096Z,26.19
2022-08-22T13:53:50.022Z,28.39
2022-08-22T13:56:31.424Z,31.56
2022-08-22T13:58:59.540Z,30.96
2022-08-22T14:01:33.450Z,33.63
2022-08-22T14:04:05.478Z,32.28
2022-08-22T14:06:55.424Z,32.42
2022-08-22T14:09:32.119Z,33.82
2022-08-22T14:12:22.435Z,32.61
2022-08-22T14:14:55.314Z,34.34
2022-08-22T14:17:23.992Z,33.29
2022-08-22T14:19:58.939Z,33.82
2022-08-22T14:22:32.519Z,34.25
2022-08-22T14:25:05.102Z,33.82
2022-08-22T14:27:35.910Z,33.74
2022-08-22T14:30:07.911Z,35.10
2022-08-22T14:32:36.394Z,36.54
2022-08-22T14:35:37.578Z,36.15
2022-08-22T14:38:12.144Z,34.86
2022-08-22T14:40:47.483Z,34.92
2022-08-22T14:43:15.896Z,35.09
2022-08-22T14:45:57.378Z,35.95
2022-08-22T14:48:33.181Z,34.14
2022-08-22T14:51:03.931Z,34.15
2022-08-22T14:53:35.541Z,35.26
2022-08-22T14:56:06.008Z,35.43
2022-08-22T14:58:54.817Z,35.93
2022-08-22T15:01:26.360Z,34.46
2022-08-22T15:04:03.465Z,36.08
2022-08-22T15:06:35.951Z,35.59
2022-08-22T15:09:08.798Z,36.81
2022-08-22T15:11:36.132Z,37.31
2022-08-22T15:14:12.519Z,35.87
2022-08-22T15:16:45.529Z,38.48
2022-08-22T15:19:48.459Z,35.47
2022-08-22T15:22:25.802Z,38.34
2022-08-22T15:24:58.077Z,35.94
2022-08-22T15:27:25.947Z,35.13
2022-08-22T15:29:57.079Z,38.59
2022-08-22T15:32:26.627Z,35.06
2022-08-22T15:34:54.395Z,35.14
2022-08-22T15:37:21.760Z,35.74
2022-08-22T15:40:10.244Z,36.18
2022-08-22T15:42:45.779Z,39.33
2022-08-22T15:45:29.708Z,36.57
2022-08-22T15:47:58.219Z,37.24
2022-08-22T15:50:34.498Z,38.74
2022-08-22T15:53:24.312Z,35.72
2022-08-22T15:56:06.814Z,35.75
2022-08-22T15:58:39.780Z,34.59
2022-08-22T16:01:19.729Z,32.83
2022-08-22T16:03:53.838Z,38.04
2022-08-22T16:06:39.943Z,36.44
2022-08-22T16:09:30.201Z,33.15
2022-08-22T16:12:00.953Z,37.03
2022-08-22T16:14:34.549Z,33.58
2022-08-22T16:17:04.303Z,33.99
2022-08-22T16:19:33.208Z,34.10
2022-08-22T16:22:07.502Z,35.08
2022-08-22T16:24:55.253Z,37.06
2022-08-22T16:27:23.108Z,35.75
2022-08-22T16:30:02.253Z,36.93
2022-08-22T16:32:32.682Z,36.02
2022-08-22T16:35:00.016Z,35.90
2022-08-22T16:37:33.525Z,34.25
2022-08-22T16:40:03.579Z,35.27
2022-08-22T16:42:34.016Z,34.52
2022-08-22T16:45:07.356Z,35.67
2022-08-22T16:47:40.182Z,35.35
2022-08-22T16:50:07.688Z,36.11
2022-08-22T16:52:37.932Z,35.83
2022-08-22T16:55:07.067Z,35.28
2022-08-22T16:57:59.402Z,33.32
2022-08-22T17:00:39.054Z,33.87
2022-08-22T17:03:21.540Z,32.95
2022-08-22T17:05:58.414Z,34.82
2022-08-22T17:08:40.795Z,35.28
2022-08-22T17:11:14.591Z,36.82
2022-08-22T17:14:01.039Z,38.02
2022-08-22T17:16:39.863Z,40.00
2022-08-22T17:19:19.076Z,38.49
2022-08-22T17:21:51.804Z,36.24
2022-08-22T17:24:36.743Z,38.66
2022-08-22T17:27:23.512Z,36.57
2022-08-22T17:29:57.615Z,38.49
2022-08-22T17:32:31.187Z,40.14
2022-08-22T17:34:58.656Z,35.51
2022-08-22T17:37:46.705Z,39.37
2022-08-22T17:40:14.220Z,41.62
2022-08-22T17:42:44.765Z,41.21
2022-08-22T17:45:18.746Z,37.09
2022-08-22T17:47:46.085Z,38.58
2022-08-22T17:50:23.613Z,41.53
2022-08-22T17:53:04.062Z,37.72
2022-08-22T17:55:38.731Z,42.23
2022-08-22T17:58:11.901Z,41.88
2022-08-22T18:00:48.875Z,39.36
2022-08-22T18:03:26.552Z,40.87
2022-08-22T18:06:16.198Z,41.02
2022-08-22T18:12:02.776Z,43.04
2022-08-22T18:14:48.760Z,42.84
2022-08-22T18:17:22.936Z,43.46
2022-08-22T18:19:54.772Z,40.01
2022-08-22T18:22:28.798Z,41.34
2022-08-22T18:25:08.725Z,42.70
2022-08-22T18:27:43.678Z,43.94
2022-08-22T18:30:11.094Z,43.36
2022-08-22T18:32:58.767Z,42.42
2022-08-22T18:35:41.997Z,43.80
2022-08-22T18:38:29.480Z,44.33
2022-08-22T18:41:11.909Z,44.79
2022-08-22T18:43:40.715Z,44.52
2022-08-22T18:46:26.774Z,44.61
2022-08-22T18:49:14.526Z,44.61
2022-08-22T18:51:41.806Z,45.03
2022-08-22T18:54:12.128Z,44.05
2022-08-22T18:56:42.207Z,40.23
2022-08-22T18:59:32.911Z,39.53
2022-08-22T19:02:03.679Z,41.10
2022-08-22T19:04:40.418Z,43.22
2022-08-22T19:07:17.208Z,41.02
2022-08-22T19:09:47.381Z,42.79
2022-08-22T19:12:20.581Z,44.55
2022-08-22T19:14:50.682Z,43.04
2022-08-22T19:17:30.008Z,43.32
2022-08-22T19:20:22.241Z,44.31
2022-08-22T19:22:51.262Z,43.20
2022-08-22T19:25:29.658Z,43.09
2022-08-22T19:27:57.042Z,43.75
2022-08-22T19:30:33.289Z,44.20
2022-08-22T19:33:02.937Z,44.22
2022-08-22T19:35:37.668Z,43.65
2022-08-22T19:38:06.380Z,44.42
2022-08-22T19:40:45.966Z,43.58
2022-08-22T19:43:40.964Z,42.26
2022-08-22T19:46:09.494Z,44.94
2022-08-22T19:48:47.194Z,45.61
2022-08-22T19:51:20.781Z,43.06
2022-08-22T19:53:55.752Z,44.22
2022-08-22T19:56:26.047Z,42.74
2022-08-22T19:59:00.162Z,46.32
2022-08-22T20:01:39.768Z,46.40
2022-08-22T20:04:20.699Z,46.96
2022-08-22T20:07:14.805Z,46.79
2022-08-22T20:09:45.568Z,45.57
2022-08-22T20:12:23.051Z,44.80
2022-08-22T20:14:50.429Z,44.73
2022-08-22T20:17:26.878Z,46.20
2022-08-22T20:23:11.497Z,44.03
2022-08-22T20:25:44.023Z,45.24
2022-08-22T20:28:23.904Z,44.01
2022-08-22T20:30:51.250Z,45.59
2022-08-22T20:33:29.303Z,45.55
2022-08-22T20:35:59.630Z,45.65
2022-08-22T20:38:27.799Z,45.49
2022-08-22T20:41:21.059Z,43.54
2022-08-22T20:43:53.153Z,45.57
2022-08-22T20:46:27.040Z,46.64
2022-08-22T20:48:55.916Z,46.25
2022-08-22T20:51:25.093Z,47.27
2022-08-22T20:54:01.176Z,46.42
2022-08-22T20:56:36.796Z,45.60
2022-08-22T20:59:18.248Z,47.90
2022-08-22T21:01:45.685Z,47.30
2022-08-22T21:04:13.233Z,46.41
2022-08-22T21:06:40.564Z,47.62
2022-08-22T21:09:31.029Z,47.48
2022-08-22T21:12:00.027Z,47.11
2022-08-22T21:14:28.273Z,47.04
2022-08-22T21:16:58.147Z,46.58
2022-08-22T21:19:26.643Z,46.50
2022-08-22T21:21:54.061Z,46.15
2022-08-22T21:24:21.385Z,45.88
2022-08-22T21:26:48.677Z,46.55
2022-08-22T21:29:15.968Z,46.98
2022-08-22T21:31:45.625Z,45.98
2022-08-22T21:34:13.633Z,46.63
2022-08-22T21:36:40.989Z,45.34
2022-08-22T21:39:19.654Z,46.43
2022-08-22T21:41:51.631Z,45.52
2022-08-22T21:44:32.859Z,46.07
2022-08-22T21:47:30.699Z,46.39
2022-08-22T21:50:13.786Z,46.69
2022-08-22T21:52:56.380Z,45.34
2022-08-22T21:55:34.535Z,45.68
2022-08-22T21:58:02.286Z,46.37
2022-08-22T22:00:38.656Z,45.89
2022-08-22T22:03:07.367Z,44.84
2022-08-22T22:05:36.417Z,46.29
2022-08-22T22:08:05.637Z,46.24
2022-08-22T22:10:34.526Z,46.28
2022-08-22T22:13:02.936Z,46.39
2022-08-22T22:15:32.076Z,45.74
2022-08-22T22:18:01.742Z,46.96
2022-08-22T22:20:29.519Z,46.88
2022-08-22T22:22:56.955Z,46.79
2022-08-22T22:25:40.786Z,46.58
2022-08-22T22:28:27.760Z,45.76
2022-08-22T22:30:57.454Z,48.17
2022-08-22T22:33:25.933Z,47.71
2022-08-22T22:35:53.853Z,47.85
2022-08-22T22:38:24.129Z,47.12
2022-08-22T22:40:52.331Z,47.02
2022-08-22T22:43:21.891Z,47.08
2022-08-22T22:45:49.962Z,47.23
2022-08-22T22:48:24.460Z,47.13
2022-08-22T22:50:52.736Z,47.48
2022-08-22T22:53:21.297Z,46.30
2022-08-22T22:56:01.403Z,48.58
2022-08-22T22:58:29.165Z,48.49
2022-08-22T23:00:57.592Z,48.41
2022-08-22T23:03:27.104Z,47.94
2022-08-22T23:05:54.349Z,48.46
2022-08-22T23:08:21.621Z,48.30
2022-08-22T23:10:48.853Z,48.32
2022-08-22T23:13:16.239Z,48.18
2022-08-22T23:15:43.487Z,47.99
2022-08-22T23:18:12.505Z,48.13
2022-08-22T23:20:40.569Z,47.59
2022-08-22T23:23:07.754Z,48.13
2022-08-22T23:25:34.997Z,48.45
2022-08-22T23:28:02.593Z,48.63
2022-08-22T23:30:31.376Z,48.41
2022-08-22T23:32:58.677Z,48.93
2022-08-22T23:35:26.038Z,48.87
2022-08-22T23:37:53.209Z,48.67
2022-08-22T23:40:20.652Z,48.81
2022-08-22T23:42:48.029Z,49.00
2022-08-22T23:45:15.371Z,49.24
2022-08-22T23:47:44.938Z,49.29
2022-08-22T23:50:12.177Z,49.58
2022-08-22T23:52:39.550Z,49.45
2022-08-22T23:55:06.863Z,49.67
2022-08-22T23:57:34.787Z,49.56
